Time;durP1;ratioP1;P1;durP2;ratioP2;P2;SDS_P1;SDS_P2;PMS_P1;PMS_P2;Temp;Humidity;BMP_temperature;BMP_pressure;BME280_temperature;BME280_humidity;BME280_pressure;Samples;Min_cycle;Max_cycle;Signal;HPM_P1;HPM_P2
2023/08/17 00:01:57;;;;;;;;;;;;;;;;;;5044699;28;19929;-65
2023/08/17 00:04:23;;;;;;;;;;;;;;;;;;5048729;28;19931;-65
2023/08/17 00:06:49;;;;;;;;;;;;;;;;;;5043808;28;19980;-64
2023/08/17 00:09:15;;;;;;;;;;;;;;;;;;5043012;28;19931;-65
2023/08/17 00:11:41;;;;;;;;;;;;;;;;;;5028505;28;19971;-65
2023/08/17 00:14:07;;;;;;;;;;;;;;;;;;5044937;28;19928;-65
2023/08/17 00:16:33;;;;;;;;;;;;;;;;;;5036385;28;20012;-65
2023/08/17 00:18:59;;;;;;;;;;;;;;;;;;5044148;28;19925;-65
2023/08/17 00:21:25;;;;;;;;;;;;;;;;;;5036791;28;19932;-65
2023/08/17 00:23:51;;;;;;;;;;;;;;;;;;5053164;28;20374;-65
2023/08/17 00:26:16;;;;;;;;;;;;;;;;;;5052599;28;19931;-65
2023/08/17 00:28:42;;;;;;;;;;;;;;;;;;5050576;28;20073;-64
2023/08/17 00:31:08;;;;;;;;;;;;;;;;;;5040651;28;20325;-65
2023/08/17 00:33:34;;;;;;;;;;;;;;;;;;5050351;28;19944;-64
2023/08/17 00:36:00;;;;;;;;;;;;;;;;;;5053705;28;19979;-65
2023/08/17 00:38:26;;;;;;;;;;;;;;;;;;5051249;28;19921;-64
2023/08/17 00:40:52;;;;;;;;;;;;;;;;;;5042917;28;19924;-64
2023/08/17 00:43:18;;;;;;;;;;;;;;;;;;5054266;28;19925;-65
2023/08/17 00:45:44;;;;;;;;;;;;;;;;;;5053982;28;19920;-64
2023/08/17 00:48:09;;;;;;;;;;;;;;;;;;5030226;28;19935;-64
2023/08/17 00:50:35;;;;;;;;;;;;;;;;;;5041030;28;20019;-65
2023/08/17 00:53:01;;;;;;;;;;;;;;;;;;5052362;28;19924;-64
2023/08/17 00:55:27;;;;;;;;;;;;;;;;;;5046930;28;19943;-64
2023/08/17 00:57:53;;;;;;;;;;;;;;;;;;5051255;28;19957;-65
2023/08/17 01:00:19;;;;;;;;;;;;;;;;;;5049573;28;19956;-64
2023/08/17 01:02:45;;;;;;;;;;;;;;;;;;5051511;28;19998;-65
2023/08/17 01:05:11;;;;;;;;;;;;;;;;;;5048009;28;19925;-65
2023/08/17 01:07:37;;;;;;;;;;;;;;;;;;5050913;28;19920;-64
2023/08/17 01:10:03;;;;;;;;;;;;;;;;;;5048839;28;19928;-64
2023/08/17 01:12:29;;;;;;;;;;;;;;;;;;5034510;28;20566;-65
2023/08/17 01:14:55;;;;;;;;;;;;;;;;;;5049063;28;20035;-64
2023/08/17 01:17:21;;;;;;;;;;;;;;;;;;5035066;28;19931;-65
2023/08/17 01:19:47;;;;;;;;;;;;;;;;;;5048389;28;19947;-64
2023/08/17 01:22:13;;;;;;;;;;;;;;;;;;5050181;23;19932;-64
2023/08/17 01:24:39;;;;;;;;;;;;;;;;;;5070325;28;19924;-63
2023/08/17 01:27:05;;;;;;;;;;;;;;;;;;5068151;28;20567;-63
2023/08/17 01:29:30;;;;;;;;;;;;;;;;;;5071044;28;19931;-63
2023/08/17 01:31:56;;;;;;;;;;;;;;;;;;5059713;28;19924;-63
2023/08/17 01:34:23;;;;;;;;;;;;;;;;;;5062078;28;19927;-63
2023/08/17 01:36:49;;;;;;;;;;;;;;;;;;5066373;28;19924;-63
2023/08/17 01:39:15;;;;;;;;;;;;;;;;;;5060590;28;19920;-63
2023/08/17 01:41:40;;;;;;;;;;;;;;;;;;5068946;28;19924;-63
2023/08/17 01:44:06;;;;;;;;;;;;;;;;;;5068651;28;20012;-63
2023/08/17 01:46:32;;;;;;;;;;;;;;;;;;5068656;28;20320;-63
2023/08/17 01:48:58;;;;;;;;;;;;;;;;;;5071211;28;19951;-63
2023/08/17 01:51:25;;;;;;;;;;;;;;;;;;5069161;28;19928;-63
2023/08/17 01:53:51;;;;;;;;;;;;;;;;;;5068204;28;19925;-63
2023/08/17 01:56:17;;;;;;;;;;;;;;;;;;5060614;28;20561;-63
2023/08/17 01:58:42;;;;;;;;;;;;;;;;;;5070369;28;19927;-63
2023/08/17 02:01:08;;;;;;;;;;;;;;;;;;5070180;28;20377;-63
2023/08/17 02:03:34;;;;;;;;;;;;;;;;;;5069371;28;19924;-63
2023/08/17 02:06:00;;;;;;;;;;;;;;;;;;5069706;28;19920;-63
2023/08/17 02:08:26;;;;;;;;;;;;;;;;;;5069434;28;19952;-63
2023/08/17 02:10:52;;;;;;;;;;;;;;;;;;5068361;28;19936;-63
2023/08/17 02:13:18;;;;;;;;;;;;;;;;;;5068254;28;19959;-63
2023/08/17 02:15:44;;;;;;;;;;;;;;;;;;5069581;28;20310;-63
2023/08/17 02:18:10;;;;;;;;;;;;;;;;;;5068645;28;19931;-63
2023/08/17 02:20:36;;;;;;;;;;;;;;;;;;5067146;28;20290;-63
2023/08/17 02:23:01;;;;;;;;;;;;;;;;;;5065716;28;19928;-63
2023/08/17 02:25:34;;;;;;;;;;;;;;;;;;5069173;28;19921;-63
2023/08/17 02:28:00;;;;;;;;;;;;;;;;;;5071399;28;19920;-63
2023/08/17 02:30:26;;;;;;;;;;;;;;;;;;5065437;28;19928;-63
2023/08/17 02:32:52;;;;;;;;;;;;;;;;;;5065213;28;19920;-63
2023/08/17 02:35:18;;;;;;;;;;;;;;;;;;5079947;28;19920;-63
2023/08/17 02:37:44;;;;;;;;;;;;;;;;;;5071515;28;19921;-63
2023/08/17 02:40:10;;;;;;;;;;;;;;;;;;5056907;28;19999;-63
2023/08/17 02:42:36;;;;;;;;;;;;;;;;;;5068136;28;19968;-63
2023/08/17 02:45:02;;;;;;;;;;;;;;;;;;5067775;28;19920;-63
2023/08/17 02:47:27;;;;;;;;;;;;;;;;;;5065718;28;20404;-63
2023/08/17 02:49:53;;;;;;;;;;;;;;;;;;5068562;28;19924;-63
2023/08/17 02:52:19;;;;;;;;;;;;;;;;;;5068585;28;19924;-63
2023/08/17 02:54:45;;;;;;;;;;;;;;;;;;5071024;28;19927;-64
2023/08/17 02:57:11;;;;;;;;;;;;;;;;;;5066158;28;19956;-63
2023/08/17 02:59:37;;;;;;;;;;;;;;;;;;5069588;28;20400;-63
2023/08/17 03:02:03;;;;;;;;;;;;;;;;;;5067450;28;20387;-63
2023/08/17 03:04:29;;;;;;;;;;;;;;;;;;5055725;28;19921;-63
2023/08/17 03:06:55;;;;;;;;;;;;;;;;;;5064680;28;20503;-63
2023/08/17 03:09:20;;;;;;;;;;;;;;;;;;5052396;28;19924;-63
2023/08/17 03:11:46;;;;;;;;;;;;;;;;;;5068309;28;19955;-63
2023/08/17 03:14:12;;;;;;;;;;;;;;;;;;5067994;28;19970;-63
2023/08/17 03:16:38;;;;;;;;;;;;;;;;;;5068872;28;19924;-63
2023/08/17 03:19:04;;;;;;;;;;;;;;;;;;5070145;28;20407;-63
2023/08/17 03:21:30;;;;;;;;;;;;;;;;;;5070712;28;19925;-63
2023/08/17 03:23:56;;;;;;;;;;;;;;;;;;5069041;28;20285;-63
2023/08/17 03:26:22;;;;;;;;;;;;;;;;;;5069626;28;19927;-63
2023/08/17 03:28:48;;;;;;;;;;;;;;;;;;5066389;28;20400;-63
2023/08/17 03:31:14;;;;;;;;;;;;;;;;;;5069631;28;19920;-64
2023/08/17 03:33:40;;;;;;;;;;;;;;;;;;5061932;28;19932;-64
2023/08/17 03:36:06;;;;;;;;;;;;;;;;;;5058667;28;19920;-63
2023/08/17 03:38:32;;;;;;;;;;;;;;;;;;5062658;28;19931;-63
2023/08/17 03:40:58;;;;;;;;;;;;;;;;;;5056189;28;20378;-63
2023/08/17 03:43:26;;;;;;;;;;;;;;;;;;5066251;28;19920;-63
2023/08/17 03:45:52;;;;;;;;;;;;;;;;;;5068314;28;19928;-63
2023/08/17 03:48:17;;;;;;;;;;;;;;;;;;5070422;28;19924;-63
2023/08/17 03:50:43;;;;;;;;;;;;;;;;;;5067940;28;20003;-63
2023/08/17 03:53:09;;;;;;;;;;;;;;;;;;5071411;28;19929;-63
2023/08/17 03:55:35;;;;;;;;;;;;;;;;;;5061694;28;19939;-63
2023/08/17 03:58:01;;;;;;;;;;;;;;;;;;5073552;28;20392;-63
2023/08/17 04:00:27;;;;;;;;;;;;;;;;;;5070546;28;19924;-63
2023/08/17 04:02:53;;;;;;;;;;;;;;;;;;5054945;28;20027;-63
2023/08/17 04:05:19;;;;;;;;;;;;;;;;;;5059631;28;19921;-63
2023/08/17 04:07:45;;;;;;;;;;;;;;;;;;5060471;28;19920;-63
2023/08/17 04:10:10;;;;;;;;;;;;;;;;;;5073506;28;20455;-63
2023/08/17 04:12:36;;;;;;;;;;;;;;;;;;5072864;28;19920;-63
2023/08/17 04:15:02;;;;;;;;;;;;;;;;;;5054951;28;20534;-63
2023/08/17 04:17:28;;;;;;;;;;;;;;;;;;5059804;28;19951;-63
2023/08/17 04:19:54;;;;;;;;;;;;;;;;;;5074732;28;20007;-63
2023/08/17 04:22:20;;;;;;;;;;;;;;;;;;5073802;28;19978;-63
2023/08/17 04:24:46;;;;;;;;;;;;;;;;;;5074742;28;19924;-63
2023/08/17 04:27:13;;;;;;;;;;;;;;;;;;5072920;28;19921;-64
2023/08/17 04:29:39;;;;;;;;;;;;;;;;;;5074259;28;19931;-63
2023/08/17 04:32:05;;;;;;;;;;;;;;;;;;5072825;28;19920;-63
2023/08/17 04:34:31;;;;;;;;;;;;;;;;;;5069775;28;20018;-63
2023/08/17 04:36:57;;;;;;;;;;;;;;;;;;5081937;28;20444;-63
2023/08/17 04:39:23;;;;;;;;;;;;;;;;;;5053121;28;19925;-63
2023/08/17 04:41:49;;;;;;;;;;;;;;;;;;5073694;28;19948;-63
2023/08/17 04:44:14;;;;;;;;;;;;;;;;;;5071994;28;19928;-63
2023/08/17 04:46:40;;;;;;;;;;;;;;;;;;5074393;28;19924;-63
2023/08/17 04:49:06;;;;;;;;;;;;;;;;;;5072826;28;20332;-63
2023/08/17 04:51:32;;;;;;;;;;;;;;;;;;5074134;28;20011;-63
2023/08/17 04:53:58;;;;;;;;;;;;;;;;;;5072659;28;19920;-63
2023/08/17 04:56:24;;;;;;;;;;;;;;;;;;5074443;28;19932;-63
2023/08/17 04:58:50;;;;;;;;;;;;;;;;;;5072116;28;20007;-63
2023/08/17 05:01:16;;;;;;;;;;;;;;;;;;5067574;28;19971;-63
2023/08/17 05:03:42;;;;;;;;;;;;;;;;;;5067356;28;19944;-63
2023/08/17 05:06:08;;;;;;;;;;;;;;;;;;5069543;28;20377;-63
2023/08/17 05:08:34;;;;;;;;;;;;;;;;;;5070264;28;20242;-63
2023/08/17 05:11:00;;;;;;;;;;;;;;;;;;5071885;28;19931;-63
2023/08/17 05:13:26;;;;;;;;;;;;;;;;;;5071562;28;19928;-63
2023/08/17 05:15:52;;;;;;;;;;;;;;;;;;5070557;28;19966;-63
2023/08/17 05:18:18;;;;;;;;;;;;;;;;;;5067993;28;20297;-63
2023/08/17 05:20:43;;;;;;;;;;;;;;;;;;5071710;28;19978;-64
2023/08/17 05:23:09;;;;;;;;;;;;;;;;;;5070033;28;19932;-65
2023/08/17 05:25:35;;;;;;;;;;;;;;;;;;5071525;28;19978;-64
2023/08/17 05:28:01;;;;;;;;;;;;;;;;;;5069455;28;19921;-63
2023/08/17 05:30:27;;;;;;;;;;;;;;;;;;5070273;28;19935;-63
2023/08/17 05:32:53;;;;;;;;;;;;;;;;;;5069682;28;19929;-64
2023/08/17 05:35:19;;;;;;;;;;;;;;;;;;5066833;28;19927;-62
2023/08/17 05:37:45;;;;;;;;;;;;;;;;;;5065803;28;19931;-62
2023/08/17 05:40:11;;;;;;;;;;;;;;;;;;5070522;28;20354;-62
2023/08/17 05:42:37;;;;;;;;;;;;;;;;;;5071194;28;19935;-62
2023/08/17 05:45:03;;;;;;;;;;;;;;;;;;5070334;28;19928;-63
2023/08/17 05:47:29;;;;;;;;;;;;;;;;;;5071778;28;19927;-63
2023/08/17 05:49:55;;;;;;;;;;;;;;;;;;5070287;28;19921;-63
2023/08/17 05:52:20;;;;;;;;;;;;;;;;;;5071556;28;20385;-63
2023/08/17 05:54:46;;;;;;;;;;;;;;;;;;5063729;28;19920;-63
2023/08/17 05:57:12;;;;;;;;;;;;;;;;;;5071001;28;19943;-63
2023/08/17 05:59:38;;;;;;;;;;;;;;;;;;5070244;28;20281;-63
2023/08/17 06:02:05;;;;;;;;;;;;;;;;;;5055985;28;20031;-63
2023/08/17 06:04:31;;;;;;;;;;;;;;;;;;5067931;28;20326;-63
2023/08/17 06:06:56;;;;;;;;;;;;;;;;;;5059203;28;20026;-63
2023/08/17 06:09:22;;;;;;;;;;;;;;;;;;5054562;28;20018;-63
2023/08/17 06:11:48;;;;;;;;;;;;;;;;;;5054881;28;19921;-63
2023/08/17 06:14:14;;;;;;;;;;;;;;;;;;5056988;28;19920;-63
2023/08/17 06:16:40;;;;;;;;;;;;;;;;;;5071224;28;19924;-63
2023/08/17 06:19:06;;;;;;;;;;;;;;;;;;5070974;28;20290;-63
2023/08/17 06:21:32;;;;;;;;;;;;;;;;;;5055313;28;20359;-63
2023/08/17 06:23:58;;;;;;;;;;;;;;;;;;5069850;28;19925;-63
2023/08/17 06:26:24;;;;;;;;;;;;;;;;;;5053628;28;19921;-63
2023/08/17 06:28:50;;;;;;;;;;;;;;;;;;5054982;28;19972;-63
2023/08/17 06:31:16;;;;;;;;;;;;;;;;;;5069597;28;20396;-63
2023/08/17 06:33:42;;;;;;;;;;;;;;;;;;5069201;28;19928;-63
2023/08/17 06:36:08;;;;;;;;;;;;;;;;;;5067628;28;19921;-63
2023/08/17 06:38:34;;;;;;;;;;;;;;;;;;5042461;28;19932;-63
2023/08/17 06:40:59;;;;;;;;;;;;;;;;;;5070102;28;20471;-63
2023/08/17 06:43:25;;;;;;;;;;;;;;;;;;5065987;28;19924;-63
2023/08/17 06:45:51;;;;;;;;;;;;;;;;;;5062983;28;20334;-63
2023/08/17 06:48:17;;;;;;;;;;;;;;;;;;5062908;28;19924;-63
2023/08/17 06:50:43;;;;;;;;;;;;;;;;;;5062671;28;19927;-63
2023/08/17 06:53:09;;;;;;;;;;;;;;;;;;5061436;28;20541;-63
2023/08/17 06:55:35;;;;;;;;;;;;;;;;;;5069425;28;19924;-63
2023/08/17 06:58:01;;;;;;;;;;;;;;;;;;5069788;28;19925;-63
2023/08/17 07:00:27;;;;;;;;;;;;;;;;;;5065065;28;19974;-63
2023/08/17 07:02:53;;;;;;;;;;;;;;;;;;5061237;28;19924;-63
2023/08/17 07:05:18;;;;;;;;;;;;;;;;;;5069875;28;19921;-63
2023/08/17 07:07:45;;;;;;;;;;;;;;;;;;5068879;28;19924;-63
2023/08/17 07:10:11;;;;;;;;;;;;;;;;;;5069586;28;20278;-63
2023/08/17 07:12:36;;;;;;;;;;;;;;;;;;5065234;28;19927;-63
2023/08/17 07:15:04;;;;;;;;;;;;;;;;;;5062836;28;22531;-63
2023/08/17 07:17:30;;;;;;;;;;;;;;;;;;5061904;28;20019;-63
2023/08/17 07:19:56;;;;;;;;;;;;;;;;;;5065884;28;19971;-63
2023/08/17 07:22:22;;;;;;;;;;;;;;;;;;5065746;28;20281;-63
2023/08/17 07:24:48;;;;;;;;;;;;;;;;;;5070718;28;19988;-64
2023/08/17 07:27:14;;;;;;;;;;;;;;;;;;5065771;28;19927;-64
2023/08/17 07:29:39;;;;;;;;;;;;;;;;;;5072300;28;19928;-64
2023/08/17 07:32:05;;;;;;;;;;;;;;;;;;5071121;28;20005;-64
2023/08/17 07:34:31;;;;;;;;;;;;;;;;;;5073791;28;19921;-64
2023/08/17 07:36:57;;;;;;;;;;;;;;;;;;5058359;28;19928;-64
2023/08/17 07:39:23;;;;;;;;;;;;;;;;;;5069548;28;19993;-64
2023/08/17 07:41:49;;;;;;;;;;;;;;;;;;5074615;28;19928;-64
2023/08/17 07:44:15;;;;;;;;;;;;;;;;;;5078301;28;19920;-64
2023/08/17 07:46:41;;;;;;;;;;;;;;;;;;5070973;28;20377;-64
2023/08/17 07:49:07;;;;;;;;;;;;;;;;;;5061971;28;19995;-64
2023/08/17 07:51:33;;;;;;;;;;;;;;;;;;5063067;28;19928;-64
2023/08/17 07:53:59;;;;;;;;;;;;;;;;;;5057299;28;20066;-64
2023/08/17 07:56:25;;;;;;;;;;;;;;;;;;5070127;28;19968;-64
2023/08/17 07:58:51;;;;;;;;;;;;;;;;;;5077212;28;19964;-64
2023/08/17 08:01:17;;;;;;;;;;;;;;;;;;5074369;28;19926;-64
2023/08/17 08:03:43;;;;;;;;;;;;;;;;;;5070822;28;19921;-64
2023/08/17 08:06:09;;;;;;;;;;;;;;;;;;5068963;28;19928;-64
2023/08/17 08:08:35;;;;;;;;;;;;;;;;;;5068358;28;19936;-64
2023/08/17 08:11:00;;;;;;;;;;;;;;;;;;5066206;28;20018;-64
2023/08/17 08:13:26;;;;;;;;;;;;;;;;;;5070573;28;20266;-64
2023/08/17 08:15:52;;;;;;;;;;;;;;;;;;5068149;28;19920;-64
2023/08/17 08:18:18;;;;;;;;;;;;;;;;;;5073066;28;19928;-64
2023/08/17 08:20:44;;;;;;;;;;;;;;;;;;5068117;28;19931;-64
2023/08/17 08:23:11;;;;;;;;;;;;;;;;;;5065575;28;20861;-64
2023/08/17 08:25:37;;;;;;;;;;;;;;;;;;5070208;28;19924;-64
2023/08/17 08:28:03;;;;;;;;;;;;;;;;;;5051933;28;19928;-64
2023/08/17 08:30:29;;;;;;;;;;;;;;;;;;5068498;28;19925;-63
2023/08/17 08:32:57;;;;;;;;;;;;;;;;;;5069549;28;19943;-63
2023/08/17 08:35:24;;;;;;;;;;;;;;;;;;5068024;28;19931;-63
2023/08/17 08:37:50;;;;;;;;;;;;;;;;;;5065766;28;19959;-63
2023/08/17 08:40:16;;;;;;;;;;;;;;;;;;5067912;28;20409;-63
2023/08/17 08:42:42;;;;;;;;;;;;;;;;;;5067436;28;19928;-63
2023/08/17 08:45:07;;;;;;;;;;;;;;;;;;5063557;28;19990;-63
2023/08/17 08:47:33;;;;;;;;;;;;;;;;;;5066699;28;20016;-63
2023/08/17 08:50:02;;;;;;;;;;;;;;;;;;5066455;28;19921;-63
2023/08/17 08:52:28;;;;;;;;;;;;;;;;;;5065257;28;20372;-63
2023/08/17 08:54:54;;;;;;;;;;;;;;;;;;5067241;28;19921;-63
2023/08/17 08:57:20;;;;;;;;;;;;;;;;;;5066311;28;19978;-63
2023/08/17 08:59:47;;;;;;;;;;;;;;;;;;5066624;28;20332;-63
2023/08/17 09:02:13;;;;;;;;;;;;;;;;;;5063743;28;19928;-63
2023/08/17 09:04:39;;;;;;;;;;;;;;;;;;5066414;28;20235;-63
2023/08/17 09:07:05;;;;;;;;;;;;;;;;;;5064281;28;19967;-63
2023/08/17 09:09:31;;;;;;;;;;;;;;;;;;5066265;28;19930;-63
2023/08/17 09:11:57;;;;;;;;;;;;;;;;;;5064436;28;19920;-63
2023/08/17 09:14:23;;;;;;;;;;;;;;;;;;5066418;28;19970;-64
2023/08/17 09:16:49;;;;;;;;;;;;;;;;;;5065998;28;20290;-63
2023/08/17 09:19:14;;;;;;;;;;;;;;;;;;5064562;28;19967;-63
2023/08/17 09:21:40;;;;;;;;;;;;;;;;;;5064973;28;19933;-63
2023/08/17 09:24:07;;;;;;;;;;;;;;;;;;5065530;28;19970;-63
2023/08/17 09:26:33;;;;;;;;;;;;;;;;;;5067443;28;19929;-64
2023/08/17 09:28:59;;;;;;;;;;;;;;;;;;5064159;28;19967;-64
2023/08/17 09:31:25;;;;;;;;;;;;;;;;;;5066351;28;19920;-64
2023/08/17 09:33:50;;;;;;;;;;;;;;;;;;5070417;28;20541;-61
2023/08/17 09:36:16;;;;;;;;;;;;;;;;;;5061766;28;19970;-63
2023/08/17 09:38:42;;;;;;;;;;;;;;;;;;5058867;28;19927;-64
2023/08/17 09:41:08;;;;;;;;;;;;;;;;;;5057014;28;19920;-65
2023/08/17 09:43:34;;;;;;;;;;;;;;;;;;5062797;28;20624;-64
2023/08/17 09:46:02;;;;;;;;;;;;;;;;;;5058886;28;19928;-64
2023/08/17 09:48:28;;;;;;;;;;;;;;;;;;5063603;28;20755;-63
2023/08/17 09:50:54;;;;;;;;;;;;;;;;;;5061645;28;19924;-63
2023/08/17 09:53:20;;;;;;;;;;;;;;;;;;5059491;28;19929;-63
2023/08/17 09:55:46;;;;;;;;;;;;;;;;;;5063455;28;20251;-62
2023/08/17 09:58:17;;;;;;;;;;;;;;;;;;5062569;28;19929;-63
2023/08/17 10:00:43;;;;;;;;;;;;;;;;;;5063873;28;19924;-63
2023/08/17 10:03:09;;;;;;;;;;;;;;;;;;5061402;28;20242;-60
2023/08/17 10:05:35;;;;;;;;;;;;;;;;;;5064098;28;19971;-60
2023/08/17 10:08:01;;;;;;;;;;;;;;;;;;5054497;28;19928;-61
2023/08/17 10:10:27;;;;;;;;;;;;;;;;;;5063630;28;19927;-60
2023/08/17 10:12:54;;;;;;;;;;;;;;;;;;5064232;28;19938;-61
2023/08/17 10:15:19;;;;;;;;;;;;;;;;;;5063697;28;19925;-60
2023/08/17 10:17:45;;;;;;;;;;;;;;;;;;5069498;28;19925;-60
2023/08/17 10:20:11;;;;;;;;;;;;;;;;;;5059837;28;19921;-60
2023/08/17 10:22:38;;;;;;;;;;;;;;;;;;5064596;28;20011;-60
2023/08/17 10:25:04;;;;;;;;;;;;;;;;;;5068511;28;19963;-60
2023/08/17 10:27:30;;;;;;;;;;;;;;;;;;5062791;28;19971;-60
2023/08/17 10:29:56;;;;;;;;;;;;;;;;;;5064169;28;20417;-60
2023/08/17 10:32:22;;;;;;;;;;;;;;;;;;5068736;28;20378;-60
2023/08/17 10:34:48;;;;;;;;;;;;;;;;;;5064546;28;19924;-60
2023/08/17 10:37:13;;;;;;;;;;;;;;;;;;5071315;28;20408;-60
2023/08/17 10:39:39;;;;;;;;;;;;;;;;;;5064965;28;19921;-60
2023/08/17 10:42:05;;;;;;;;;;;;;;;;;;5062707;28;19935;-60
2023/08/17 10:44:31;;;;;;;;;;;;;;;;;;5064200;28;19952;-61
2023/08/17 10:46:57;;;;;;;;;;;;;;;;;;5066566;28;20541;-60
2023/08/17 10:49:23;;;;;;;;;;;;;;;;;;5060053;28;20010;-60
2023/08/17 10:51:49;;;;;;;;;;;;;;;;;;5061620;28;19924;-61
2023/08/17 10:54:15;;;;;;;;;;;;;;;;;;5070530;28;19921;-60
2023/08/17 10:56:41;;;;;;;;;;;;;;;;;;5064087;28;20443;-60
2023/08/17 10:59:07;;;;;;;;;;;;;;;;;;5053466;28;19939;-60
2023/08/17 11:01:33;;;;;;;;;;;;;;;;;;5058685;28;19950;-60
2023/08/17 11:03:59;;;;;;;;;;;;;;;;;;5062176;28;20290;-60
2023/08/17 11:06:26;;;;;;;;;;;;;;;;;;5070717;28;19931;-60
2023/08/17 11:08:53;;;;;;;;;;;;;;;;;;5066057;28;19921;-60
2023/08/17 11:11:19;;;;;;;;;;;;;;;;;;5064635;28;19921;-60
2023/08/17 11:13:45;;;;;;;;;;;;;;;;;;5053854;28;19936;-60
2023/08/17 11:16:11;;;;;;;;;;;;;;;;;;5055374;28;19929;-60
2023/08/17 11:18:37;;;;;;;;;;;;;;;;;;5059228;28;19998;-60
2023/08/17 11:21:03;;;;;;;;;;;;;;;;;;5061403;28;19925;-60
2023/08/17 11:23:29;;;;;;;;;;;;;;;;;;5059890;28;19928;-60
2023/08/17 11:25:55;;;;;;;;;;;;;;;;;;5067302;28;19921;-60
2023/08/17 11:28:21;;;;;;;;;;;;;;;;;;5067623;28;19920;-60
2023/08/17 11:30:46;;;;;;;;;;;;;;;;;;5068092;28;19964;-60
2023/08/17 11:33:13;;;;;;;;;;;;;;;;;;5064525;28;20285;-60
2023/08/17 11:35:39;;;;;;;;;;;;;;;;;;5061816;28;20270;-60
2023/08/17 11:38:05;;;;;;;;;;;;;;;;;;5066895;28;19924;-61
2023/08/17 11:40:31;;;;;;;;;;;;;;;;;;5061409;28;20018;-61
2023/08/17 11:42:57;;;;;;;;;;;;;;;;;;5055478;28;20054;-61
2023/08/17 11:45:23;;;;;;;;;;;;;;;;;;5066437;28;19924;-61
2023/08/17 11:47:49;;;;;;;;;;;;;;;;;;5061830;28;20494;-61
2023/08/17 11:50:15;;;;;;;;;;;;;;;;;;5065986;28;19925;-61
2023/08/17 11:52:41;;;;;;;;;;;;;;;;;;5064701;28;19935;-61
2023/08/17 11:55:07;;;;;;;;;;;;;;;;;;5075574;28;20005;-61
2023/08/17 11:57:33;;;;;;;;;;;;;;;;;;5069659;28;19924;-61
2023/08/17 11:59:59;;;;;;;;;;;;;;;;;;5062693;28;19921;-61
2023/08/17 12:02:25;;;;;;;;;;;;;;;;;;5063971;28;19925;-61
2023/08/17 12:04:51;;;;;;;;;;;;;;;;;;5066935;28;19952;-61
2023/08/17 12:07:17;;;;;;;;;;;;;;;;;;5055236;28;19931;-61
2023/08/17 12:09:42;;;;;;;;;;;;;;;;;;5062228;28;19946;-61
2023/08/17 12:12:08;;;;;;;;;;;;;;;;;;5061031;28;20433;-61
2023/08/17 12:14:34;;;;;;;;;;;;;;;;;;5060160;28;19924;-61
2023/08/17 12:17:00;;;;;;;;;;;;;;;;;;5068663;28;19928;-61
2023/08/17 12:19:26;;;;;;;;;;;;;;;;;;5070667;28;20282;-61
2023/08/17 12:21:52;;;;;;;;;;;;;;;;;;5070736;28;19932;-61
2023/08/17 12:24:19;;;;;;;;;;;;;;;;;;5060228;28;19935;-61
2023/08/17 12:26:46;;;;;;;;;;;;;;;;;;5071845;28;20277;-61
2023/08/17 12:29:12;;;;;;;;;;;;;;;;;;5071295;28;19962;-61
2023/08/17 12:31:37;;;;;;;;;;;;;;;;;;5066861;28;20385;-61
2023/08/17 12:34:05;;;;;;;;;;;;;;;;;;5061979;28;19958;-61
2023/08/17 12:36:31;;;;;;;;;;;;;;;;;;5069674;28;20016;-61
2023/08/17 12:38:57;;;;;;;;;;;;;;;;;;5072141;28;19999;-61
2023/08/17 12:41:23;;;;;;;;;;;;;;;;;;5066854;28;20420;-61
2023/08/17 12:43:48;;;;;;;;;;;;;;;;;;5065957;28;19924;-61
2023/08/17 12:46:14;;;;;;;;;;;;;;;;;;5065219;28;19983;-61
2023/08/17 12:48:40;;;;;;;;;;;;;;;;;;5068926;28;19930;-61
2023/08/17 12:51:06;;;;;;;;;;;;;;;;;;5065503;28;20015;-61
2023/08/17 12:53:32;;;;;;;;;;;;;;;;;;5064402;28;19931;-61
2023/08/17 12:55:58;;;;;;;;;;;;;;;;;;5061001;28;20307;-61
2023/08/17 12:58:24;;;;;;;;;;;;;;;;;;5068789;28;20267;-61
2023/08/17 13:00:50;;;;;;;;;;;;;;;;;;5067021;28;19924;-61
2023/08/17 13:03:16;;;;;;;;;;;;;;;;;;5066526;28;20001;-61
2023/08/17 13:05:42;;;;;;;;;;;;;;;;;;5062499;28;20308;-61
2023/08/17 13:08:09;;;;;;;;;;;;;;;;;;5071665;28;20011;-61
2023/08/17 13:10:35;;;;;;;;;;;;;;;;;;5070532;28;19924;-61
2023/08/17 13:13:00;;;;;;;;;;;;;;;;;;5060011;28;20015;-61
2023/08/17 13:15:26;;;;;;;;;;;;;;;;;;5068324;28;19954;-61
2023/08/17 13:17:52;;;;;;;;;;;;;;;;;;5061554;28;19920;-60
2023/08/17 13:20:18;;;;;;;;;;;;;;;;;;5070581;28;19963;-61
2023/08/17 13:22:44;;;;;;;;;;;;;;;;;;5069793;28;19931;-61
2023/08/17 13:25:10;;;;;;;;;;;;;;;;;;5067722;28;19924;-61
2023/08/17 13:27:36;;;;;;;;;;;;;;;;;;5072793;28;19927;-61
2023/08/17 13:30:02;;;;;;;;;;;;;;;;;;5066658;28;19982;-61
2023/08/17 13:32:28;;;;;;;;;;;;;;;;;;5065861;28;20053;-61
2023/08/17 13:34:54;;;;;;;;;;;;;;;;;;5067030;28;20463;-61
2023/08/17 13:37:20;;;;;;;;;;;;;;;;;;5074213;23;20034;-66
2023/08/17 13:39:46;;;;;;;;;;;;;;;;;;5028876;28;19925;-67
2023/08/17 13:42:11;;;;;;;;;;;;;;;;;;5014227;28;19929;-66
2023/08/17 13:44:37;;;;;;;;;;;;;;;;;;5027592;28;19920;-66
2023/08/17 13:47:03;;;;;;;;;;;;;;;;;;5029949;28;20631;-66
2023/08/17 13:49:29;;;;;;;;;;;;;;;;;;5044422;28;19969;-65
2023/08/17 13:51:56;;;;;;;;;;;;;;;;;;5020264;28;19921;-65
2023/08/17 13:54:22;;;;;;;;;;;;;;;;;;5034766;28;19925;-66
2023/08/17 13:56:48;;;;;;;;;;;;;;;;;;5029990;28;19947;-65
2023/08/17 13:59:14;;;;;;;;;;;;;;;;;;5032212;28;19925;-65
2023/08/17 14:01:39;;;;;;;;;;;;;;;;;;5025166;28;19933;-66
2023/08/17 14:04:11;;;;;;;;;;;;;;;;;;5027177;28;19925;-66
2023/08/17 14:06:36;;;;;;;;;;;;;;;;;;5019366;28;19925;-66
2023/08/17 14:09:02;;;;;;;;;;;;;;;;;;5030513;28;19975;-65
2023/08/17 14:11:28;;;;;;;;;;;;;;;;;;5039758;28;19967;-65
2023/08/17 14:13:54;;;;;;;;;;;;;;;;;;5032042;28;19927;-66
2023/08/17 14:16:20;;;;;;;;;;;;;;;;;;5028392;28;19922;-66
2023/08/17 14:18:46;;;;;;;;;;;;;;;;;;5036436;28;20294;-65
2023/08/17 14:21:12;;;;;;;;;;;;;;;;;;5041281;28;19921;-65
2023/08/17 14:23:38;;;;;;;;;;;;;;;;;;5047504;28;19925;-65
2023/08/17 14:26:04;;;;;;;;;;;;;;;;;;5047807;28;20007;-65
2023/08/17 14:28:29;;;;;;;;;;;;;;;;;;5034676;28;20003;-65
2023/08/17 14:30:55;;;;;;;;;;;;;;;;;;5029227;28;19921;-65
2023/08/17 14:33:21;;;;;;;;;;;;;;;;;;5035325;28;19925;-66
2023/08/17 14:35:47;;;;;;;;;;;;;;;;;;5029534;28;19921;-66
2023/08/17 14:38:13;;;;;;;;;;;;;;;;;;5027491;28;19980;-66
2023/08/17 14:40:39;;;;;;;;;;;;;;;;;;5008109;28;20016;-66
2023/08/17 14:43:05;;;;;;;;;;;;;;;;;;5015260;28;20367;-65
2023/08/17 14:45:31;;;;;;;;;;;;;;;;;;5010313;28;19935;-65
2023/08/17 14:47:58;;;;;;;;;;;;;;;;;;5026163;28;19931;-61
2023/08/17 14:50:24;;;;;;;;;;;;;;;;;;5025426;28;20441;-61
2023/08/17 14:52:50;;;;;;;;;;;;;;;;;;5031461;28;20016;-61
2023/08/17 14:55:16;;;;;;;;;;;;;;;;;;5010480;28;19925;-61
2023/08/17 14:57:42;;;;;;;;;;;;;;;;;;5030683;28;19921;-61
2023/08/17 15:00:08;;;;;;;;;;;;;;;;;;5034892;28;19929;-61
2023/08/17 15:02:34;;;;;;;;;;;;;;;;;;5030950;28;19935;-61
2023/08/17 15:05:00;;;;;;;;;;;;;;;;;;5012200;28;19929;-61
2023/08/17 15:07:26;;;;;;;;;;;;;;;;;;4995685;28;20318;-61
2023/08/17 15:09:52;;;;;;;;;;;;;;;;;;5037929;28;19950;-61
2023/08/17 15:12:18;;;;;;;;;;;;;;;;;;5031620;28;19999;-61
2023/08/17 15:14:44;;;;;;;;;;;;;;;;;;5040880;28;20020;-61
2023/08/17 15:17:12;;;;;;;;;;;;;;;;;;5024541;28;20018;-61
2023/08/17 15:19:38;;;;;;;;;;;;;;;;;;5010774;28;20012;-61
2023/08/17 15:22:04;;;;;;;;;;;;;;;;;;5032411;28;20019;-61
2023/08/17 15:24:30;;;;;;;;;;;;;;;;;;5034838;28;19928;-61
2023/08/17 15:26:55;;;;;;;;;;;;;;;;;;5037247;28;19921;-61
2023/08/17 15:29:21;;;;;;;;;;;;;;;;;;5029992;28;19975;-61
2023/08/17 15:31:47;;;;;;;;;;;;;;;;;;5030820;28;19943;-61
2023/08/17 15:34:13;;;;;;;;;;;;;;;;;;5036375;28;20415;-61
2023/08/17 15:36:39;;;;;;;;;;;;;;;;;;5033042;28;19925;-61
2023/08/17 15:39:05;;;;;;;;;;;;;;;;;;5026718;28;19948;-61
2023/08/17 15:41:31;;;;;;;;;;;;;;;;;;5027515;28;19955;-61
2023/08/17 15:43:57;;;;;;;;;;;;;;;;;;5039347;28;19925;-61
2023/08/17 15:46:23;;;;;;;;;;;;;;;;;;5027565;28;19925;-61
2023/08/17 15:48:49;;;;;;;;;;;;;;;;;;5029475;28;19921;-61
2023/08/17 15:51:15;;;;;;;;;;;;;;;;;;5034853;28;19928;-61
2023/08/17 15:53:43;;;;;;;;;;;;;;;;;;5036099;28;19928;-61
2023/08/17 15:56:09;;;;;;;;;;;;;;;;;;5015531;28;19932;-61
2023/08/17 15:58:35;;;;;;;;;;;;;;;;;;5044100;28;20371;-61
2023/08/17 16:01:00;;;;;;;;;;;;;;;;;;5025770;28;19921;-61
2023/08/17 16:03:26;;;;;;;;;;;;;;;;;;5028373;28;20671;-61
2023/08/17 16:05:52;;;;;;;;;;;;;;;;;;5031046;28;19925;-61
2023/08/17 16:08:18;;;;;;;;;;;;;;;;;;5029662;28;19996;-61
2023/08/17 16:10:44;;;;;;;;;;;;;;;;;;5018545;28;19928;-61
2023/08/17 16:13:10;;;;;;;;;;;;;;;;;;5039257;28;19977;-61
2023/08/17 16:15:36;;;;;;;;;;;;;;;;;;5017703;28;20039;-61
2023/08/17 16:18:02;;;;;;;;;;;;;;;;;;5022613;28;19970;-61
2023/08/17 16:20:29;;;;;;;;;;;;;;;;;;5034095;28;19943;-61
2023/08/17 16:22:55;;;;;;;;;;;;;;;;;;5055671;28;20405;-61
2023/08/17 16:25:21;;;;;;;;;;;;;;;;;;5048116;28;19920;-60
2023/08/17 16:27:47;;;;;;;;;;;;;;;;;;5049384;28;19925;-60
2023/08/17 16:30:13;;;;;;;;;;;;;;;;;;5048055;28;20393;-61
2023/08/17 16:32:39;;;;;;;;;;;;;;;;;;5050424;28;19921;-61
2023/08/17 16:35:05;;;;;;;;;;;;;;;;;;5043936;28;19956;-60
2023/08/17 16:37:31;;;;;;;;;;;;;;;;;;5031630;28;19972;-60